La Carlota, Spain
Current Conditions -  °F | °C
As of 6:00 PM on Thursday 23 Oct 2014 (Local Time) from LEBA Reporting Station
Clear Clear  
Wind Chill: 82°   Ceiling: Unl
Heat Index: 82°   Visibility: 6mi
Dew Point: 45°   Wind: 3mph
Humidity: 26%   Direction: 70°ENE
Pressure: 30.06"   Gusts: NA
Location:  37.67°N, 4.93°W
Report Text: LEBA 231600Z AUTO 07003KT CAVOK 28/07 Q1018
Loading
Personal Weather Stations






























Interactive Weather Map
Tropical Storm Tracking
New forecast layout! Learn more

10-Day Weather Forecast

Advertisements
Track Severe Weather on mobile